sensor_id;sensor_type;location;lat;lon;timestamp;P1;durP1;ratioP1;P2;durP2;ratioP2
74259;SDS011;62630;55.874;37.516;2023-02-12T00:01:08;2.80;;;1.77;;
74259;SDS011;62630;55.874;37.516;2023-02-12T00:03:37;2.83;;;1.70;;
74259;SDS011;62630;55.874;37.516;2023-02-12T00:06:03;2.67;;;1.35;;
74259;SDS011;62630;55.874;37.516;2023-02-12T00:08:29;3.67;;;1.75;;
74259;SDS011;62630;55.874;37.516;2023-02-12T00:10:55;2.20;;;1.40;;
74259;SDS011;62630;55.874;37.516;2023-02-12T00:13:21;1.73;;;1.30;;
74259;SDS011;62630;55.874;37.516;2023-02-12T00:15:46;2.95;;;1.67;;
74259;SDS011;62630;55.874;37.516;2023-02-12T00:18:14;3.28;;;1.67;;
74259;SDS011;62630;55.874;37.516;2023-02-12T00:20:40;2.67;;;1.63;;
74259;SDS011;62630;55.874;37.516;2023-02-12T00:23:06;3.60;;;1.80;;
74259;SDS011;62630;55.874;37.516;2023-02-12T00:25:32;3.50;;;1.92;;
74259;SDS011;62630;55.874;37.516;2023-02-12T00:28:01;5.05;;;2.10;;
74259;SDS011;62630;55.874;37.516;2023-02-12T00:30:26;5.55;;;2.38;;
74259;SDS011;62630;55.874;37.516;2023-02-12T00:32:52;3.67;;;2.28;;
74259;SDS011;62630;55.874;37.516;2023-02-12T00:35:18;6.18;;;2.58;;
74259;SDS011;62630;55.874;37.516;2023-02-12T00:37:43;13.68;;;2.75;;
74259;SDS011;62630;55.874;37.516;2023-02-12T00:40:09;5.47;;;2.10;;
74259;SDS011;62630;55.874;37.516;2023-02-12T00:42:38;4.47;;;2.40;;
74259;SDS011;62630;55.874;37.516;2023-02-12T00:45:03;5.95;;;2.40;;
74259;SDS011;62630;55.874;37.516;2023-02-12T00:47:29;4.32;;;2.13;;
74259;SDS011;62630;55.874;37.516;2023-02-12T00:49:55;4.65;;;2.58;;
74259;SDS011;62630;55.874;37.516;2023-02-12T00:52:20;3.50;;;2.20;;
74259;SDS011;62630;55.874;37.516;2023-02-12T00:54:46;4.03;;;2.42;;
74259;SDS011;62630;55.874;37.516;2023-02-12T00:57:11;5.25;;;2.40;;
74259;SDS011;62630;55.874;37.516;2023-02-12T00:59:37;4.15;;;2.15;;
74259;SDS011;62630;55.874;37.516;2023-02-12T01:02:04;4.45;;;2.15;;
74259;SDS011;62630;55.874;37.516;2023-02-12T01:04:29;4.05;;;2.55;;
74259;SDS011;62630;55.874;37.516;2023-02-12T01:06:55;6.45;;;2.60;;
74259;SDS011;62630;55.874;37.516;2023-02-12T01:09:20;4.65;;;2.50;;
74259;SDS011;62630;55.874;37.516;2023-02-12T01:11:46;4.20;;;2.17;;
74259;SDS011;62630;55.874;37.516;2023-02-12T01:14:11;5.13;;;2.95;;
74259;SDS011;62630;55.874;37.516;2023-02-12T01:16:37;4.75;;;2.13;;
74259;SDS011;62630;55.874;37.516;2023-02-12T01:19:03;3.85;;;2.15;;
74259;SDS011;62630;55.874;37.516;2023-02-12T01:21:29;4.60;;;2.70;;
74259;SDS011;62630;55.874;37.516;2023-02-12T01:23:58;7.57;;;2.10;;
74259;SDS011;62630;55.874;37.516;2023-02-12T01:26:27;7.60;;;2.88;;
74259;SDS011;62630;55.874;37.516;2023-02-12T01:28:55;3.00;;;2.13;;
74259;SDS011;62630;55.874;37.516;2023-02-12T01:31:27;3.72;;;2.30;;
74259;SDS011;62630;55.874;37.516;2023-02-12T01:33:55;6.05;;;2.38;;
74259;SDS011;62630;55.874;37.516;2023-02-12T01:36:22;8.25;;;2.22;;
74259;SDS011;62630;55.874;37.516;2023-02-12T01:38:51;4.90;;;2.17;;
74259;SDS011;62630;55.874;37.516;2023-02-12T01:41:18;3.88;;;1.90;;
74259;SDS011;62630;55.874;37.516;2023-02-12T01:46:32;4.20;;;1.75;;
74259;SDS011;62630;55.874;37.516;2023-02-12T01:48:57;3.78;;;1.85;;
74259;SDS011;62630;55.874;37.516;2023-02-12T01:51:34;3.45;;;1.73;;
74259;SDS011;62630;55.874;37.516;2023-02-12T01:54:02;3.60;;;1.98;;
74259;SDS011;62630;55.874;37.516;2023-02-12T01:56:31;3.97;;;1.85;;
74259;SDS011;62630;55.874;37.516;2023-02-12T01:58:57;2.33;;;1.23;;
74259;SDS011;62630;55.874;37.516;2023-02-12T02:01:27;4.70;;;1.85;;
74259;SDS011;62630;55.874;37.516;2023-02-12T02:04:04;2.67;;;1.63;;
74259;SDS011;62630;55.874;37.516;2023-02-12T02:06:55;3.20;;;1.27;;
74259;SDS011;62630;55.874;37.516;2023-02-12T02:09:27;2.25;;;1.20;;
74259;SDS011;62630;55.874;37.516;2023-02-12T02:11:54;3.35;;;1.50;;
74259;SDS011;62630;55.874;37.516;2023-02-12T02:14:39;7.07;;;1.50;;
74259;SDS011;62630;55.874;37.516;2023-02-12T02:22:41;2.17;;;1.20;;
74259;SDS011;62630;55.874;37.516;2023-02-12T02:36:26;2.47;;;1.35;;
74259;SDS011;62630;55.874;37.516;2023-02-12T02:44:27;3.90;;;1.85;;
74259;SDS011;62630;55.874;37.516;2023-02-12T02:46:59;3.33;;;1.75;;
74259;SDS011;62630;55.874;37.516;2023-02-12T02:49:31;6.95;;;2.08;;
74259;SDS011;62630;55.874;37.516;2023-02-12T02:52:16;3.35;;;1.83;;
74259;SDS011;62630;55.874;37.516;2023-02-12T02:54:48;4.95;;;2.17;;
74259;SDS011;62630;55.874;37.516;2023-02-12T02:57:25;6.03;;;2.40;;
74259;SDS011;62630;55.874;37.516;2023-02-12T02:59:57;9.27;;;3.25;;
74259;SDS011;62630;55.874;37.516;2023-02-12T03:02:29;4.15;;;2.17;;
74259;SDS011;62630;55.874;37.516;2023-02-12T03:05:09;9.48;;;2.78;;
74259;SDS011;62630;55.874;37.516;2023-02-12T03:07:44;4.38;;;2.20;;
74259;SDS011;62630;55.874;37.516;2023-02-12T03:10:21;4.78;;;2.13;;
74259;SDS011;62630;55.874;37.516;2023-02-12T03:13:03;6.93;;;2.67;;
74259;SDS011;62630;55.874;37.516;2023-02-12T03:18:04;4.20;;;1.65;;
74259;SDS011;62630;55.874;37.516;2023-02-12T03:20:37;4.07;;;1.90;;
74259;SDS011;62630;55.874;37.516;2023-02-12T03:23:16;4.70;;;1.70;;
74259;SDS011;62630;55.874;37.516;2023-02-12T03:25:52;2.92;;;1.65;;
74259;SDS011;62630;55.874;37.516;2023-02-12T03:28:31;3.22;;;1.15;;
74259;SDS011;62630;55.874;37.516;2023-02-12T03:31:06;1.85;;;1.30;;
74259;SDS011;62630;55.874;37.516;2023-02-12T03:44:51;2.95;;;1.88;;
74259;SDS011;62630;55.874;37.516;2023-02-12T03:50:05;3.00;;;1.38;;
74259;SDS011;62630;55.874;37.516;2023-02-12T03:52:39;6.35;;;1.20;;
74259;SDS011;62630;55.874;37.516;2023-02-12T03:55:05;2.33;;;1.10;;
74259;SDS011;62630;55.874;37.516;2023-02-12T03:57:39;5.55;;;1.48;;
74259;SDS011;62630;55.874;37.516;2023-02-12T04:00:16;1.25;;;0.90;;
74259;SDS011;62630;55.874;37.516;2023-02-12T04:02:45;7.97;;;1.40;;
74259;SDS011;62630;55.874;37.516;2023-02-12T04:05:18;4.93;;;1.25;;
74259;SDS011;62630;55.874;37.516;2023-02-12T04:07:46;3.40;;;1.00;;
74259;SDS011;62630;55.874;37.516;2023-02-12T04:10:16;5.22;;;1.33;;
74259;SDS011;62630;55.874;37.516;2023-02-12T04:24:11;2.20;;;0.90;;
74259;SDS011;62630;55.874;37.516;2023-02-12T04:26:51;3.33;;;1.00;;
74259;SDS011;62630;55.874;37.516;2023-02-12T04:32:37;7.80;;;1.40;;
74259;SDS011;62630;55.874;37.516;2023-02-12T04:35:07;9.40;;;1.52;;
74259;SDS011;62630;55.874;37.516;2023-02-12T04:37:43;4.93;;;1.30;;
74259;SDS011;62630;55.874;37.516;2023-02-12T04:40:28;1.42;;;0.80;;
74259;SDS011;62630;55.874;37.516;2023-02-12T04:42:54;1.33;;;0.82;;
74259;SDS011;62630;55.874;37.516;2023-02-12T04:45:24;3.53;;;0.90;;
74259;SDS011;62630;55.874;37.516;2023-02-12T04:47:52;2.15;;;0.90;;
74259;SDS011;62630;55.874;37.516;2023-02-12T04:50:20;3.60;;;0.88;;
74259;SDS011;62630;55.874;37.516;2023-02-12T04:52:46;4.05;;;1.00;;
74259;SDS011;62630;55.874;37.516;2023-02-12T04:55:12;3.78;;;1.05;;
74259;SDS011;62630;55.874;37.516;2023-02-12T04:57:38;1.88;;;0.88;;
74259;SDS011;62630;55.874;37.516;2023-02-12T05:00:04;4.22;;;1.02;;
74259;SDS011;62630;55.874;37.516;2023-02-12T05:02:34;2.10;;;0.60;;
74259;SDS011;62630;55.874;37.516;2023-02-12T05:04:59;1.08;;;0.70;;
74259;SDS011;62630;55.874;37.516;2023-02-12T05:07:25;0.73;;;0.35;;
74259;SDS011;62630;55.874;37.516;2023-02-12T05:09:50;3.95;;;1.10;;
74259;SDS011;62630;55.874;37.516;2023-02-12T05:12:19;4.65;;;1.00;;
74259;SDS011;62630;55.874;37.516;2023-02-12T05:14:47;4.60;;;0.80;;
74259;SDS011;62630;55.874;37.516;2023-02-12T05:17:13;3.88;;;0.77;;
74259;SDS011;62630;55.874;37.516;2023-02-12T05:19:38;3.50;;;0.70;;
74259;SDS011;62630;55.874;37.516;2023-02-12T05:22:04;4.85;;;0.70;;
74259;SDS011;62630;55.874;37.516;2023-02-12T05:24:29;2.58;;;0.80;;
74259;SDS011;62630;55.874;37.516;2023-02-12T05:26:55;3.08;;;0.43;;
74259;SDS011;62630;55.874;37.516;2023-02-12T05:29:20;1.65;;;0.50;;
74259;SDS011;62630;55.874;37.516;2023-02-12T05:31:46;3.67;;;0.70;;
74259;SDS011;62630;55.874;37.516;2023-02-12T05:34:12;2.97;;;0.80;;
74259;SDS011;62630;55.874;37.516;2023-02-12T05:36:38;3.58;;;1.75;;
74259;SDS011;62630;55.874;37.516;2023-02-12T05:39:05;3.60;;;0.73;;
74259;SDS011;62630;55.874;37.516;2023-02-12T05:41:31;4.20;;;0.60;;
74259;SDS011;62630;55.874;37.516;2023-02-12T05:44:00;1.88;;;0.70;;
74259;SDS011;62630;55.874;37.516;2023-02-12T05:46:29;3.58;;;0.93;;
74259;SDS011;62630;55.874;37.516;2023-02-12T05:48:55;1.48;;;0.60;;
74259;SDS011;62630;55.874;37.516;2023-02-12T05:51:22;2.28;;;0.85;;
74259;SDS011;62630;55.874;37.516;2023-02-12T05:53:50;0.93;;;0.50;;
74259;SDS011;62630;55.874;37.516;2023-02-12T05:56:18;7.57;;;1.20;;
74259;SDS011;62630;55.874;37.516;2023-02-12T05:58:46;2.97;;;0.70;;
74259;SDS011;62630;55.874;37.516;2023-02-12T06:01:20;0.93;;;0.70;;
74259;SDS011;62630;55.874;37.516;2023-02-12T06:03:49;3.60;;;1.17;;
74259;SDS011;62630;55.874;37.516;2023-02-12T06:06:19;1.77;;;0.75;;
74259;SDS011;62630;55.874;37.516;2023-02-12T06:08:46;2.45;;;0.55;;
74259;SDS011;62630;55.874;37.516;2023-02-12T06:11:15;0.98;;;0.63;;
74259;SDS011;62630;55.874;37.516;2023-02-12T06:13:42;1.38;;;0.60;;
74259;SDS011;62630;55.874;37.516;2023-02-12T06:18:48;0.47;;;0.32;;
74259;SDS011;62630;55.874;37.516;2023-02-12T06:21:14;2.33;;;0.75;;
74259;SDS011;62630;55.874;37.516;2023-02-12T06:26:07;0.75;;;0.60;;
74259;SDS011;62630;55.874;37.516;2023-02-12T06:28:35;2.13;;;0.88;;
74259;SDS011;62630;55.874;37.516;2023-02-12T06:31:01;1.83;;;0.73;;
74259;SDS011;62630;55.874;37.516;2023-02-12T06:33:28;2.22;;;0.45;;
74259;SDS011;62630;55.874;37.516;2023-02-12T06:35:57;3.08;;;0.70;;
74259;SDS011;62630;55.874;37.516;2023-02-12T06:38:33;1.52;;;0.73;;
74259;SDS011;62630;55.874;37.516;2023-02-12T06:41:02;1.38;;;0.55;;
74259;SDS011;62630;55.874;37.516;2023-02-12T06:43:30;2.28;;;0.70;;
74259;SDS011;62630;55.874;37.516;2023-02-12T06:45:58;3.53;;;0.80;;
74259;SDS011;62630;55.874;37.516;2023-02-12T06:48:25;1.95;;;0.68;;
74259;SDS011;62630;55.874;37.516;2023-02-12T06:50:50;3.20;;;0.90;;
74259;SDS011;62630;55.874;37.516;2023-02-12T06:53:16;1.65;;;0.80;;
74259;SDS011;62630;55.874;37.516;2023-02-12T06:55:41;3.10;;;0.70;;
74259;SDS011;62630;55.874;37.516;2023-02-12T06:58:08;3.03;;;0.60;;
74259;SDS011;62630;55.874;37.516;2023-02-12T07:00:33;2.33;;;0.50;;
74259;SDS011;62630;55.874;37.516;2023-02-12T07:03:00;2.35;;;0.68;;
74259;SDS011;62630;55.874;37.516;2023-02-12T07:05:25;3.20;;;0.80;;
74259;SDS011;62630;55.874;37.516;2023-02-12T07:07:51;2.03;;;0.50;;
74259;SDS011;62630;55.874;37.516;2023-02-12T07:10:17;3.97;;;0.70;;
74259;SDS011;62630;55.874;37.516;2023-02-12T07:12:44;2.55;;;0.65;;
74259;SDS011;62630;55.874;37.516;2023-02-12T07:15:10;1.05;;;0.45;;
74259;SDS011;62630;55.874;37.516;2023-02-12T07:17:36;1.75;;;0.70;;
74259;SDS011;62630;55.874;37.516;2023-02-12T07:20:01;1.60;;;0.50;;
74259;SDS011;62630;55.874;37.516;2023-02-12T07:22:27;1.02;;;0.60;;
74259;SDS011;62630;55.874;37.516;2023-02-12T07:25:00;7.53;;;1.65;;
74259;SDS011;62630;55.874;37.516;2023-02-12T07:27:26;1.30;;;0.47;;
74259;SDS011;62630;55.874;37.516;2023-02-12T07:29:53;1.77;;;0.68;;
74259;SDS011;62630;55.874;37.516;2023-02-12T07:32:21;1.08;;;0.65;;
74259;SDS011;62630;55.874;37.516;2023-02-12T07:34:51;1.65;;;0.70;;
74259;SDS011;62630;55.874;37.516;2023-02-12T07:37:16;1.35;;;0.70;;
74259;SDS011;62630;55.874;37.516;2023-02-12T07:39:46;4.65;;;1.02;;
74259;SDS011;62630;55.874;37.516;2023-02-12T07:42:12;2.20;;;1.00;;
74259;SDS011;62630;55.874;37.516;2023-02-12T07:44:39;2.33;;;0.60;;
74259;SDS011;62630;55.874;37.516;2023-02-12T07:47:04;2.38;;;0.50;;
74259;SDS011;62630;55.874;37.516;2023-02-12T07:49:30;0.65;;;0.50;;
74259;SDS011;62630;55.874;37.516;2023-02-12T07:52:00;2.00;;;0.60;;
74259;SDS011;62630;55.874;37.516;2023-02-12T07:54:25;3.05;;;0.68;;
74259;SDS011;62630;55.874;37.516;2023-02-12T07:56:51;3.55;;;0.80;;
74259;SDS011;62630;55.874;37.516;2023-02-12T07:59:18;7.03;;;0.73;;
74259;SDS011;62630;55.874;37.516;2023-02-12T08:01:45;2.10;;;0.80;;
74259;SDS011;62630;55.874;37.516;2023-02-12T08:04:16;1.83;;;0.50;;
74259;SDS011;62630;55.874;37.516;2023-02-12T08:06:45;2.80;;;0.63;;
74259;SDS011;62630;55.874;37.516;2023-02-12T08:09:13;1.77;;;0.52;;
74259;SDS011;62630;55.874;37.516;2023-02-12T08:11:44;2.55;;;0.50;;
74259;SDS011;62630;55.874;37.516;2023-02-12T08:14:11;4.13;;;0.80;;
74259;SDS011;62630;55.874;37.516;2023-02-12T08:16:39;2.55;;;0.93;;
74259;SDS011;62630;55.874;37.516;2023-02-12T08:19:07;2.95;;;0.70;;
74259;SDS011;62630;55.874;37.516;2023-02-12T08:21:36;1.05;;;0.40;;
74259;SDS011;62630;55.874;37.516;2023-02-12T08:24:01;3.85;;;0.90;;
74259;SDS011;62630;55.874;37.516;2023-02-12T08:26:32;1.05;;;0.80;;
74259;SDS011;62630;55.874;37.516;2023-02-12T08:29:01;1.10;;;0.65;;
74259;SDS011;62630;55.874;37.516;2023-02-12T08:31:29;3.50;;;0.68;;
74259;SDS011;62630;55.874;37.516;2023-02-12T08:33:58;1.50;;;0.43;;
74259;SDS011;62630;55.874;37.516;2023-02-12T08:36:38;0.85;;;0.38;;
74259;SDS011;62630;55.874;37.516;2023-02-12T08:39:05;1.13;;;0.45;;
74259;SDS011;62630;55.874;37.516;2023-02-12T08:41:32;2.55;;;0.45;;
74259;SDS011;62630;55.874;37.516;2023-02-12T08:43:59;1.33;;;0.57;;
74259;SDS011;62630;55.874;37.516;2023-02-12T08:46:33;1.90;;;0.70;;
74259;SDS011;62630;55.874;37.516;2023-02-12T08:49:02;2.00;;;0.50;;
74259;SDS011;62630;55.874;37.516;2023-02-12T08:51:31;1.70;;;0.52;;
74259;SDS011;62630;55.874;37.516;2023-02-12T08:54:00;0.50;;;0.40;;
74259;SDS011;62630;55.874;37.516;2023-02-12T08:56:28;2.40;;;0.55;;
74259;SDS011;62630;55.874;37.516;2023-02-12T08:58:56;0.65;;;0.38;;
74259;SDS011;62630;55.874;37.516;2023-02-12T09:01:24;0.75;;;0.30;;
74259;SDS011;62630;55.874;37.516;2023-02-12T09:03:51;1.35;;;0.40;;
74259;SDS011;62630;55.874;37.516;2023-02-12T09:06:19;3.90;;;0.43;;
74259;SDS011;62630;55.874;37.516;2023-02-12T09:08:46;1.13;;;0.50;;
74259;SDS011;62630;55.874;37.516;2023-02-12T09:11:13;3.10;;;0.47;;
74259;SDS011;62630;55.874;37.516;2023-02-12T09:13:43;0.98;;;0.47;;
74259;SDS011;62630;55.874;37.516;2023-02-12T09:16:11;1.00;;;0.30;;
74259;SDS011;62630;55.874;37.516;2023-02-12T09:18:37;1.23;;;0.43;;
74259;SDS011;62630;55.874;37.516;2023-02-12T09:21:05;3.25;;;0.68;;
74259;SDS011;62630;55.874;37.516;2023-02-12T09:23:39;0.40;;;0.40;;
74259;SDS011;62630;55.874;37.516;2023-02-12T09:26:07;1.52;;;0.70;;
74259;SDS011;62630;55.874;37.516;2023-02-12T09:28:35;1.23;;;0.77;;
74259;SDS011;62630;55.874;37.516;2023-02-12T09:31:06;1.88;;;0.63;;
74259;SDS011;62630;55.874;37.516;2023-02-12T09:33:33;1.55;;;0.70;;
74259;SDS011;62630;55.874;37.516;2023-02-12T09:36:00;1.77;;;0.35;;
74259;SDS011;62630;55.874;37.516;2023-02-12T09:38:29;4.65;;;0.80;;
74259;SDS011;62630;55.874;37.516;2023-02-12T09:43:53;5.35;;;0.60;;
74259;SDS011;62630;55.874;37.516;2023-02-12T09:46:29;1.85;;;0.50;;
74259;SDS011;62630;55.874;37.516;2023-02-12T09:51:39;1.45;;;0.50;;
74259;SDS011;62630;55.874;37.516;2023-02-12T09:54:15;0.20;;;0.20;;
74259;SDS011;62630;55.874;37.516;2023-02-12T09:56:50;1.70;;;0.70;;
74259;SDS011;62630;55.874;37.516;2023-02-12T09:59:38;1.58;;;0.70;;
74259;SDS011;62630;55.874;37.516;2023-02-12T10:02:16;0.95;;;0.40;;
74259;SDS011;62630;55.874;37.516;2023-02-12T10:04:45;0.63;;;0.30;;
74259;SDS011;62630;55.874;37.516;2023-02-12T10:13:23;1.35;;;0.32;;
74259;SDS011;62630;55.874;37.516;2023-02-12T10:15:41;1.00;;;0.40;;
74259;SDS011;62630;55.874;37.516;2023-02-12T10:18:33;4.05;;;0.55;;
74259;SDS011;62630;55.874;37.516;2023-02-12T10:26:30;1.20;;;0.60;;
74259;SDS011;62630;55.874;37.516;2023-02-12T10:29:14;1.50;;;0.68;;
74259;SDS011;62630;55.874;37.516;2023-02-12T10:31:51;0.60;;;0.40;;
74259;SDS011;62630;55.874;37.516;2023-02-12T10:34:21;0.70;;;0.40;;
74259;SDS011;62630;55.874;37.516;2023-02-12T10:36:50;2.97;;;0.80;;
74259;SDS011;62630;55.874;37.516;2023-02-12T10:39:24;2.38;;;0.65;;
74259;SDS011;62630;55.874;37.516;2023-02-12T10:42:02;1.17;;;0.50;;
74259;SDS011;62630;55.874;37.516;2023-02-12T10:44:37;1.08;;;0.43;;
74259;SDS011;62630;55.874;37.516;2023-02-12T10:47:05;0.70;;;0.40;;
74259;SDS011;62630;55.874;37.516;2023-02-12T10:55:22;1.38;;;0.60;;
74259;SDS011;62630;55.874;37.516;2023-02-12T10:57:55;1.35;;;0.60;;
74259;SDS011;62630;55.874;37.516;2023-02-12T11:00:25;2.17;;;0.43;;
74259;SDS011;62630;55.874;37.516;2023-02-12T11:05:31;4.57;;;0.80;;
74259;SDS011;62630;55.874;37.516;2023-02-12T11:08:02;2.67;;;0.60;;
74259;SDS011;62630;55.874;37.516;2023-02-12T11:10:29;1.15;;;0.60;;
74259;SDS011;62630;55.874;37.516;2023-02-12T11:13:05;2.60;;;0.68;;
74259;SDS011;62630;55.874;37.516;2023-02-12T11:15:51;1.55;;;0.30;;
74259;SDS011;62630;55.874;37.516;2023-02-12T11:18:26;1.85;;;0.60;;
74259;SDS011;62630;55.874;37.516;2023-02-12T11:23:43;1.08;;;0.60;;
74259;SDS011;62630;55.874;37.516;2023-02-12T11:28:59;1.15;;;0.50;;
74259;SDS011;62630;55.874;37.516;2023-02-12T11:32:00;1.20;;;0.70;;
74259;SDS011;62630;55.874;37.516;2023-02-12T11:34:31;3.58;;;1.05;;
74259;SDS011;62630;55.874;37.516;2023-02-12T11:36:57;2.35;;;0.50;;
74259;SDS011;62630;55.874;37.516;2023-02-12T11:42:38;1.58;;;0.70;;
74259;SDS011;62630;55.874;37.516;2023-02-12T11:44:51;2.28;;;0.68;;
74259;SDS011;62630;55.874;37.516;2023-02-12T11:47:23;1.60;;;0.45;;
74259;SDS011;62630;55.874;37.516;2023-02-12T11:52:53;1.13;;;0.60;;
74259;SDS011;62630;55.874;37.516;2023-02-12T11:55:26;0.65;;;0.40;;
74259;SDS011;62630;55.874;37.516;2023-02-12T11:58:16;1.85;;;0.70;;
74259;SDS011;62630;55.874;37.516;2023-02-12T12:00:46;2.45;;;0.63;;
74259;SDS011;62630;55.874;37.516;2023-02-12T12:07:04;2.38;;;0.73;;
74259;SDS011;62630;55.874;37.516;2023-02-12T12:14:35;0.77;;;0.30;;
74259;SDS011;62630;55.874;37.516;2023-02-12T12:17:28;0.38;;;0.30;;
74259;SDS011;62630;55.874;37.516;2023-02-12T12:20:24;0.60;;;0.22;;
74259;SDS011;62630;55.874;37.516;2023-02-12T12:25:43;4.13;;;0.57;;
74259;SDS011;62630;55.874;37.516;2023-02-12T12:28:22;1.88;;;0.63;;
74259;SDS011;62630;55.874;37.516;2023-02-12T12:31:09;1.25;;;0.50;;
74259;SDS011;62630;55.874;37.516;2023-02-12T12:38:59;2.03;;;0.50;;
74259;SDS011;62630;55.874;37.516;2023-02-12T12:42:01;2.30;;;0.50;;
74259;SDS011;62630;55.874;37.516;2023-02-12T12:44:56;0.68;;;0.60;;
74259;SDS011;62630;55.874;37.516;2023-02-12T13:12:37;0.40;;;0.30;;
74259;SDS011;62630;55.874;37.516;2023-02-12T13:18:04;0.70;;;0.40;;
74259;SDS011;62630;55.874;37.516;2023-02-12T13:25:57;0.65;;;0.50;;
74259;SDS011;62630;55.874;37.516;2023-02-12T13:28:37;1.77;;;0.70;;
74259;SDS011;62630;55.874;37.516;2023-02-12T13:31:13;0.80;;;0.40;;
74259;SDS011;62630;55.874;37.516;2023-02-12T13:33:58;2.40;;;0.70;;
74259;SDS011;62630;55.874;37.516;2023-02-12T13:36:26;2.28;;;0.75;;
74259;SDS011;62630;55.874;37.516;2023-02-12T13:41:51;3.05;;;0.73;;
74259;SDS011;62630;55.874;37.516;2023-02-12T13:52:45;3.53;;;0.40;;
74259;SDS011;62630;55.874;37.516;2023-02-12T13:55:22;2.47;;;0.90;;
74259;SDS011;62630;55.874;37.516;2023-02-12T14:03:24;2.45;;;0.73;;
74259;SDS011;62630;55.874;37.516;2023-02-12T14:11:17;3.60;;;0.70;;
74259;SDS011;62630;55.874;37.516;2023-02-12T14:22:00;4.05;;;1.05;;
74259;SDS011;62630;55.874;37.516;2023-02-12T14:27:05;1.02;;;0.60;;
74259;SDS011;62630;55.874;37.516;2023-02-12T14:30:00;2.72;;;0.63;;
74259;SDS011;62630;55.874;37.516;2023-02-12T14:37:55;1.75;;;1.10;;
74259;SDS011;62630;55.874;37.516;2023-02-12T14:40:29;3.58;;;0.75;;
74259;SDS011;62630;55.874;37.516;2023-02-12T14:48:51;6.30;;;0.77;;
74259;SDS011;62630;55.874;37.516;2023-02-12T14:51:35;1.42;;;0.80;;
74259;SDS011;62630;55.874;37.516;2023-02-12T14:54:13;2.58;;;1.20;;
74259;SDS011;62630;55.874;37.516;2023-02-12T14:57:08;1.20;;;0.70;;
74259;SDS011;62630;55.874;37.516;2023-02-12T14:59:46;4.20;;;0.70;;
74259;SDS011;62630;55.874;37.516;2023-02-12T15:02:18;1.27;;;1.00;;
74259;SDS011;62630;55.874;37.516;2023-02-12T15:04:51;2.67;;;1.00;;
74259;SDS011;62630;55.874;37.516;2023-02-12T15:08:25;2.42;;;1.13;;
74259;SDS011;62630;55.874;37.516;2023-02-12T15:10:53;2.20;;;0.90;;
74259;SDS011;62630;55.874;37.516;2023-02-12T15:19:18;4.15;;;0.90;;
74259;SDS011;62630;55.874;37.516;2023-02-12T15:24:47;2.58;;;1.25;;
74259;SDS011;62630;55.874;37.516;2023-02-12T15:27:13;1.75;;;0.68;;
74259;SDS011;62630;55.874;37.516;2023-02-12T15:29:40;1.08;;;0.70;;
74259;SDS011;62630;55.874;37.516;2023-02-12T15:32:14;1.88;;;0.70;;
74259;SDS011;62630;55.874;37.516;2023-02-12T15:34:47;4.53;;;1.05;;
74259;SDS011;62630;55.874;37.516;2023-02-12T15:37:19;1.77;;;0.80;;
74259;SDS011;62630;55.874;37.516;2023-02-12T15:39:48;1.98;;;0.63;;
74259;SDS011;62630;55.874;37.516;2023-02-12T15:44:51;3.72;;;1.10;;
74259;SDS011;62630;55.874;37.516;2023-02-12T15:47:18;2.38;;;0.95;;
74259;SDS011;62630;55.874;37.516;2023-02-12T15:49:48;3.85;;;0.90;;
74259;SDS011;62630;55.874;37.516;2023-02-12T15:52:24;2.10;;;1.00;;
74259;SDS011;62630;55.874;37.516;2023-02-12T15:55:01;1.40;;;1.15;;
74259;SDS011;62630;55.874;37.516;2023-02-12T15:57:29;4.97;;;1.20;;
74259;SDS011;62630;55.874;37.516;2023-02-12T15:59:56;2.70;;;1.15;;
74259;SDS011;62630;55.874;37.516;2023-02-12T16:02:31;5.25;;;2.47;;
74259;SDS011;62630;55.874;37.516;2023-02-12T16:04:58;2.55;;;1.20;;
74259;SDS011;62630;55.874;37.516;2023-02-12T16:07:27;4.35;;;1.50;;
74259;SDS011;62630;55.874;37.516;2023-02-12T16:10:02;2.97;;;0.93;;
74259;SDS011;62630;55.874;37.516;2023-02-12T16:12:51;4.18;;;1.65;;
74259;SDS011;62630;55.874;37.516;2023-02-12T16:15:30;2.65;;;1.10;;
74259;SDS011;62630;55.874;37.516;2023-02-12T16:17:58;2.67;;;1.30;;
74259;SDS011;62630;55.874;37.516;2023-02-12T16:20:28;6.53;;;1.33;;
74259;SDS011;62630;55.874;37.516;2023-02-12T16:22:55;3.95;;;1.13;;
74259;SDS011;62630;55.874;37.516;2023-02-12T16:25:25;2.22;;;1.30;;
74259;SDS011;62630;55.874;37.516;2023-02-12T16:28:03;4.38;;;1.00;;
74259;SDS011;62630;55.874;37.516;2023-02-12T16:30:41;3.28;;;1.15;;
74259;SDS011;62630;55.874;37.516;2023-02-12T16:33:51;4.75;;;1.48;;
74259;SDS011;62630;55.874;37.516;2023-02-12T16:36:13;2.22;;;1.30;;
74259;SDS011;62630;55.874;37.516;2023-02-12T16:46:27;3.55;;;1.02;;
74259;SDS011;62630;55.874;37.516;2023-02-12T16:48:55;2.47;;;0.95;;
74259;SDS011;62630;55.874;37.516;2023-02-12T16:51:25;1.98;;;1.00;;
74259;SDS011;62630;55.874;37.516;2023-02-12T16:53:52;1.88;;;1.05;;
74259;SDS011;62630;55.874;37.516;2023-02-12T16:56:21;4.13;;;0.82;;
74259;SDS011;62630;55.874;37.516;2023-02-12T16:58:52;3.13;;;1.63;;
74259;SDS011;62630;55.874;37.516;2023-02-12T17:01:22;2.10;;;0.77;;
74259;SDS011;62630;55.874;37.516;2023-02-12T17:03:56;1.48;;;0.63;;
74259;SDS011;62630;55.874;37.516;2023-02-12T17:06:25;1.80;;;0.70;;
74259;SDS011;62630;55.874;37.516;2023-02-12T17:08:52;1.95;;;0.82;;
74259;SDS011;62630;55.874;37.516;2023-02-12T17:11:18;2.85;;;1.30;;
74259;SDS011;62630;55.874;37.516;2023-02-12T17:13:44;3.03;;;0.65;;
74259;SDS011;62630;55.874;37.516;2023-02-12T17:16:10;4.50;;;0.82;;
74259;SDS011;62630;55.874;37.516;2023-02-12T17:18:36;2.17;;;0.98;;
74259;SDS011;62630;55.874;37.516;2023-02-12T17:21:04;4.18;;;0.68;;
74259;SDS011;62630;55.874;37.516;2023-02-12T17:23:32;1.08;;;0.80;;
74259;SDS011;62630;55.874;37.516;2023-02-12T17:25:58;2.08;;;0.93;;
74259;SDS011;62630;55.874;37.516;2023-02-12T17:28:24;2.72;;;1.17;;
74259;SDS011;62630;55.874;37.516;2023-02-12T17:30:50;4.57;;;1.08;;
74259;SDS011;62630;55.874;37.516;2023-02-12T17:33:17;2.08;;;0.90;;
74259;SDS011;62630;55.874;37.516;2023-02-12T17:35:43;1.80;;;0.98;;
74259;SDS011;62630;55.874;37.516;2023-02-12T17:38:09;4.80;;;1.23;;
74259;SDS011;62630;55.874;37.516;2023-02-12T17:40:36;5.65;;;1.48;;
74259;SDS011;62630;55.874;37.516;2023-02-12T17:43:02;4.68;;;1.83;;
74259;SDS011;62630;55.874;37.516;2023-02-12T17:45:29;3.95;;;1.25;;
74259;SDS011;62630;55.874;37.516;2023-02-12T17:47:55;5.25;;;1.23;;
74259;SDS011;62630;55.874;37.516;2023-02-12T17:50:21;4.00;;;1.17;;
74259;SDS011;62630;55.874;37.516;2023-02-12T17:52:46;3.38;;;1.50;;
74259;SDS011;62630;55.874;37.516;2023-02-12T17:55:12;5.28;;;1.80;;
74259;SDS011;62630;55.874;37.516;2023-02-12T17:57:44;5.07;;;2.03;;
74259;SDS011;62630;55.874;37.516;2023-02-12T18:00:10;5.28;;;1.92;;
74259;SDS011;62630;55.874;37.516;2023-02-12T18:02:43;7.38;;;1.88;;
74259;SDS011;62630;55.874;37.516;2023-02-12T18:05:18;4.75;;;2.00;;
74259;SDS011;62630;55.874;37.516;2023-02-12T18:07:43;3.67;;;1.27;;
74259;SDS011;62630;55.874;37.516;2023-02-12T18:10:09;4.20;;;1.60;;
74259;SDS011;62630;55.874;37.516;2023-02-12T18:12:38;4.68;;;1.77;;
74259;SDS011;62630;55.874;37.516;2023-02-12T18:15:04;4.18;;;1.35;;
74259;SDS011;62630;55.874;37.516;2023-02-12T18:17:31;6.38;;;1.85;;
74259;SDS011;62630;55.874;37.516;2023-02-12T18:20:22;4.25;;;1.45;;
74259;SDS011;62630;55.874;37.516;2023-02-12T18:22:49;6.15;;;1.90;;
74259;SDS011;62630;55.874;37.516;2023-02-12T18:25:15;6.05;;;2.35;;